Terminal Aerodrome Forecast
Issued by NWS Charleston, WV

Current Version | Previous Version | Graphics & Text | Print | Product List | Glossary On
Versions: 1 2 3 4 5 6 7 8 9 10 11 12 13 14 15 16 17 18 19 20 21 22 23 24 25 26
000
FTUS41 KRLX 151807 AAA
TAFBKW
TAF AMD
KBKW 151807Z 1518/1618 00000KT 3SM BR OVC002
     FM152000 29004KT 5SM BR OVC004
     FM152200 00000KT 3SM -RA OVC008
     FM160300 00000KT 1/2SM -RA FG OVC003
     FM161500 17005KT 2SM BR OVC004
     FM161700 16005KT 5SM BR OVC008=

USA.gov is the U.S. government's official web portal to all federal, state and local government web resources and services.